• Join FlightAware (Why Join?)
  • Login
  • US Flag 
07:15AM EDT


 

Airport Tracker/Info


-or-


 

Live Flight TrackerFlight Track Log ✈ GJS6231 ✈ 07-May-2013 ✈ KLGA - CYHZ

Flight Track Log - Related Links

Times and Time Zones

All times are in EDT time to prevent confusion due to time zone crossing. See the GJS6231 flight status page for this flight to view local times or setup timezone preferences in your user account.

Time Position Orientation Groundspeed Altitude Reporting Facility
EDT Latitude Longitude Course Direction KTS MPH feet Rate Location/Type
08:55PM 40.7333 -73.8167 44° Northeast 186 214 2,900  Level New York TRACON
08:57PM 40.8047 -73.7561 33° Northeast 235 270 6,100 2,100 Climbing Boston Center
08:58PM 40.8719 -73.7081 28° Northeast 250 288 8,400 2,340 Climbing Boston Center
08:59PM 40.9331 -73.6406 40° Northeast 264 304 10,800 2,100 Climbing Boston Center
09:00PM 41.0111 -73.5542 40° Northeast 292 336 12,600 1,680 Climbing Boston Center
09:01PM 41.1773 -73.3792 44° Northeast  Level FlightAware Approximate
09:01PM 41.0847 -73.4700 41° Northeast 335 386 14,200  Level Boston Center
09:02PM 41.1669 -73.3803 39° Northeast 363 418 16,300 1,800 Climbing Boston Center
09:03PM 41.2425 -73.2986 39° Northeast 369 425 17,800 1,320 Climbing Boston Center
09:04PM 41.3161 -73.2139 41° Northeast 379 436 19,000 1,320 Climbing Boston Center
09:05PM 41.4003 -73.0931 47° Northeast 389 448 20,500 1,500 Climbing Boston Center
09:06PM 41.4592 -72.9636 59° Northeast 400 460 22,000 1,380 Climbing Boston Center
09:07PM 41.5244 -72.8200 59° Northeast 400 460 23,300 1,320 Climbing Boston Center
09:08PM 41.6122 -72.7206 40° Northeast 400 460 24,700 1,200 Climbing Boston Center
09:09PM 41.7103 -72.6264 36° Northeast 427 491 25,700 960 Climbing Boston Center
09:10PM 41.8189 -72.5600 24° Northeast 422 486 26,700 960 Climbing Boston Center
09:11PM 41.9211 -72.4736 32° Northeast 427 491 27,700 960 Climbing Boston Center
09:12PM 42.0128 -72.3647 41° Northeast 432 497 28,700 960 Climbing Boston Center
09:13PM 42.1064 -72.2525 42° Northeast 438 504 29,700 960 Climbing Boston Center
09:14PM 42.1978 -72.1431 42° Northeast 438 504 30,700 900 Climbing Boston Center
09:15PM 42.2914 -72.0275 42° Northeast 438 504 31,600 900 Climbing Boston Center
09:16PM 42.3825 -71.9172 42° Northeast 438 504 32,500 900 Climbing Boston Center
09:17PM 42.4736 -71.8039 43° Northeast 438 504 33,400 900 Climbing Boston Center
09:18PM 42.5647 -71.6931 42° Northeast 438 504 34,300 900 Climbing Boston Center
09:19PM 42.6556 -71.5819 42° Northeast 438 504 35,300 840 Climbing Boston Center
09:20PM 42.7444 -71.4844 39° Northeast 443 510 36,200 780 Climbing Boston Center
09:21PM 42.8453 -71.3528 44° Northeast 437 503 37,100 660 Climbing Boston Center
09:22PM 42.9339 -71.2433 42° Northeast 431 496 37,600 480 Climbing Boston Center
09:23PM 43.0203 -71.1367 42° Northeast 426 490 38,100 480 Climbing Boston Center
09:24PM 43.1064 -71.0239 44° Northeast 426 490 38,600 420 Climbing Boston Center
09:25PM 43.1925 -70.9164 42° Northeast 420 483 39,000 180 Climbing Boston Center
09:26PM 43.2786 -70.8058 43° Northeast 420 483 39,000  Level Boston Center
09:27PM 43.3625 -70.6953 44° Northeast 415 478 39,000  Level Boston Center
09:28PM 43.4458 -70.5697 48° Northeast 420 483 39,000  Level Boston Center
09:29PM 43.5122 -70.4247 58° Northeast 430 495 39,000  Level Boston Center
09:30PM 43.5783 -70.2819 57° Northeast 442 509 39,000  Level Boston Center
09:31PM 43.6442 -70.1333 58° Northeast 447 514 39,000  Level Boston Center
09:33PM 43.7178 -69.9581 60° Northeast 437 503 39,000  Level Boston Center
09:34PM 43.7950 -69.7850 58° Northeast 437 503 39,000  Level Boston Center
09:35PM 43.8606 -69.6411 58° Northeast 437 503 39,000  Level Boston Center
09:36PM 43.9275 -69.4908 58° Northeast 437 503 39,000  Level Boston Center
09:37PM 43.9903 -69.3436 59° Northeast 437 503 39,000  Level Boston Center
09:38PM 44.0531 -69.1958 59° Northeast 437 503 39,000  Level Boston Center
09:39PM 44.1197 -69.0475 58° Northeast 437 503 39,000  Level Boston Center
09:40PM 44.1819 -68.9019 59° Northeast 437 503 39,000  Level Boston Center
09:41PM 44.2439 -68.7506 60° Northeast 437 503 39,000  Level Boston Center
09:42PM 44.3078 -68.6014 59° Northeast 437 503 39,000  Level Boston Center
09:43PM 44.3694 -68.4550 59° Northeast 437 503 39,000  Level Boston Center
09:44PM 44.4347 -68.2994 60° Northeast 437 503 39,000  Level Boston Center
09:45PM 44.4983 -68.1522 59° Northeast 437 503 39,000  Level Boston Center
09:46PM 44.5572 -68.0022 61° Northeast 437 503 39,000  Level Boston Center
09:47PM 44.6203 -67.8544 59° Northeast 437 503 39,000 -180 Level Boston Center
09:48PM 44.6847 -67.6975 60° Northeast 437 503 38,700 -420 Descending Boston Center
09:49PM 44.7514 -67.5458 58° Northeast 442 509 38,200 -540 Descending Boston Center
09:50PM 44.8189 -67.3703 61° Northeast 456 525 37,700 -540 Descending Boston Center
09:50PM 44.8333 -67.3000 74° East 460 529 37,500 -540 Descending Moncton Center
09:51PM 44.8833 -67.1333 67° East 460 529 37,000 -540 Descending Moncton Center
09:52PM 44.9000 -66.9500 83° East 460 529 36,500 -540 Descending Moncton Center
09:53PM 44.9000 -66.7500 90° East 460 529 36,000 -540 Descending Moncton Center
09:54PM 44.9000 -66.6000 90° East 470 541 35,500 -540 Descending Moncton Center
09:55PM 44.9000 -66.3833 90° East 480 552 35,000 -540 Descending Moncton Center
09:56PM 44.9000 -66.2167 90° East 480 552 34,500 -540 Descending Moncton Center
09:57PM 44.9167 -66.0000 84° East 490 564 34,000 -300 Descending Moncton Center
09:58PM 44.9167 -65.8167 90° East 490 564 34,000 -300 Level Moncton Center
09:59PM 44.9167 -65.6333 90° East 490 564 33,400 -960 Descending Moncton Center
10:00PM 44.9167 -65.4333 90° East 490 564 32,100 -1,560 Descending Moncton Center
10:01PM 44.9167 -65.2500 90° East 490 564 30,300 -1,980 Descending Moncton Center
10:02PM 44.9167 -65.0667 90° East 480 552 28,200 -2,460 Descending Moncton Center
10:03PM 44.9167 -64.8667 90° East 460 529 25,400 -2,880 Descending Moncton Center
10:04PM 44.9167 -64.7000 90° East 450 518 22,500 -3,000 Descending Moncton Center
10:05PM 44.9167 -64.5167 90° East 450 518 19,400 -3,000 Descending Moncton Center
10:06PM 44.9167 -64.3500 90° East 440 506 16,600 -2,940 Descending Moncton Center
10:07PM 44.9333 -64.1833 82° East 420 483 13,600 -2,280 Descending Moncton Center
10:08PM 44.9500 -64.0500 80° East 390 449 12,100 -1,860 Descending Moncton Center
10:09PM 44.9667 -63.9167 80° East 320 368 9,900 -2,040 Descending Moncton Center
10:10PM 44.9833 -63.8000 79° East 290 334 8,100 -1,980 Descending Moncton Center
10:11PM 45.0000 -63.7167 74° East 260 299 6,000 -1,800 Descending Moncton Center
10:12PM 45.0167 -63.6167 77° East 240 276 4,500 -1,260 Descending Moncton Center
10:13PM 45.0167 -63.5500 90° East 230 265 3,500 -900 Descending Moncton Center
10:14PM 45.0000 -63.4500 103° East 210 242 2,700 -600 Descending Moncton Center
10:15PM 44.9667 -63.4000 133° Southeast 180 207 2,400 -480 Descending Moncton Center
10:16PM 44.9333 -63.4333 215° Southwest 150 173 1,800 -600 Descending Moncton Center
10:17PM 44.9000 -63.4500 200° South 120 138 1,200 -600 Descending Moncton Center
10:18PM 44.8833 -63.4833 235° Southwest 110 127 600 -600 Descending Moncton Center